sensor_id;sensor_type;location;lat;lon;timestamp;pressure;altitude;pressure_sealevel;temperature;humidity
84815;BME280;75050;53.190;5.562;2024-02-21T00:01:52;102097.41;;;10.41;89.84
84815;BME280;75050;53.190;5.562;2024-02-21T00:04:17;102089.59;;;10.41;90.00
84815;BME280;75050;53.190;5.562;2024-02-21T00:06:42;102092.25;;;10.40;89.81
84815;BME280;75050;53.190;5.562;2024-02-21T00:09:08;102078.34;;;10.41;89.91
84815;BME280;75050;53.190;5.562;2024-02-21T00:11:34;102077.50;;;10.40;89.82
84815;BME280;75050;53.190;5.562;2024-02-21T00:14:00;102070.53;;;10.41;89.90
84815;BME280;75050;53.190;5.562;2024-02-21T00:16:25;102059.25;;;10.40;90.02
84815;BME280;75050;53.190;5.562;2024-02-21T00:18:51;102050.66;;;10.38;89.96
84815;BME280;75050;53.190;5.562;2024-02-21T00:21:16;102049.72;;;10.39;89.89
84815;BME280;75050;53.190;5.562;2024-02-21T00:23:44;102049.84;;;10.36;89.82
84815;BME280;75050;53.190;5.562;2024-02-21T00:26:12;102043.69;;;10.39;89.93
84815;BME280;75050;53.190;5.562;2024-02-21T00:28:38;102032.34;;;10.40;89.83
84815;BME280;75050;53.190;5.562;2024-02-21T00:31:03;102026.53;;;10.33;90.04
84815;BME280;75050;53.190;5.562;2024-02-21T00:33:28;102036.72;;;10.39;90.10
84815;BME280;75050;53.190;5.562;2024-02-21T00:35:54;102039.31;;;10.39;89.88
84815;BME280;75050;53.190;5.562;2024-02-21T00:38:19;102031.50;;;10.39;90.07
84815;BME280;75050;53.190;5.562;2024-02-21T00:40:44;102039.31;;;10.39;90.11
84815;BME280;75050;53.190;5.562;2024-02-21T00:43:10;102028.06;;;10.39;89.99
84815;BME280;75050;53.190;5.562;2024-02-21T00:45:35;102007.31;;;10.36;89.92
84815;BME280;75050;53.190;5.562;2024-02-21T00:48:00;102027.13;;;10.40;90.08
84815;BME280;75050;53.190;5.562;2024-02-21T00:50:26;102023.69;;;10.39;90.04
84815;BME280;75050;53.190;5.562;2024-02-21T00:52:51;102029.72;;;10.40;90.44
84815;BME280;75050;53.190;5.562;2024-02-21T00:55:17;102025.44;;;10.39;89.91
84815;BME280;75050;53.190;5.562;2024-02-21T00:57:42;102027.13;;;10.40;89.89
84815;BME280;75050;53.190;5.562;2024-02-21T01:00:08;102044.53;;;10.39;89.98
84815;BME280;75050;53.190;5.562;2024-02-21T01:02:33;102034.94;;;10.40;89.94
84815;BME280;75050;53.190;5.562;2024-02-21T01:05:00;102033.25;;;10.39;89.91
84815;BME280;75050;53.190;5.562;2024-02-21T01:07:25;102025.59;;;10.34;89.85
84815;BME280;75050;53.190;5.562;2024-02-21T01:09:51;102038.47;;;10.39;90.13
84815;BME280;75050;53.190;5.562;2024-02-21T01:12:16;102019.59;;;10.32;90.09
84815;BME280;75050;53.190;5.562;2024-02-21T01:14:42;102036.72;;;10.39;90.09
84815;BME280;75050;53.190;5.562;2024-02-21T01:17:07;102032.34;;;10.40;90.02
84815;BME280;75050;53.190;5.562;2024-02-21T01:19:32;102025.44;;;10.39;90.04
84815;BME280;75050;53.190;5.562;2024-02-21T01:21:58;102027.13;;;10.40;90.19
84815;BME280;75050;53.190;5.562;2024-02-21T01:24:23;102026.34;;;10.38;90.10
84815;BME280;75050;53.190;5.562;2024-02-21T01:26:49;102022.00;;;10.38;90.35
84815;BME280;75050;53.190;5.562;2024-02-21T01:29:15;102018.66;;;10.35;90.23
84815;BME280;75050;53.190;5.562;2024-02-21T01:31:40;102008.06;;;10.39;90.21
84815;BME280;75050;53.190;5.562;2024-02-21T01:34:05;102017.63;;;10.39;90.37
84815;BME280;75050;53.190;5.562;2024-02-21T01:36:31;102017.63;;;10.39;90.08
84815;BME280;75050;53.190;5.562;2024-02-21T01:38:56;102011.56;;;10.38;90.20
84815;BME280;75050;53.190;5.562;2024-02-21T01:41:21;102008.97;;;10.38;90.09
84815;BME280;75050;53.190;5.562;2024-02-21T01:43:47;102014.19;;;10.38;90.22
84815;BME280;75050;53.190;5.562;2024-02-21T01:46:12;102014.19;;;10.38;90.08
84815;BME280;75050;53.190;5.562;2024-02-21T01:48:38;102006.41;;;10.37;90.22
84815;BME280;75050;53.190;5.562;2024-02-21T01:51:04;102004.66;;;10.37;90.14
84815;BME280;75050;53.190;5.562;2024-02-21T01:53:38;101996.84;;;10.37;90.18
84815;BME280;75050;53.190;5.562;2024-02-21T01:56:05;102008.09;;;10.38;90.10
84815;BME280;75050;53.190;5.562;2024-02-21T01:58:32;101985.88;;;10.30;90.22
84815;BME280;75050;53.190;5.562;2024-02-21T02:00:59;101994.25;;;10.37;90.37
84815;BME280;75050;53.190;5.562;2024-02-21T02:03:25;102002.09;;;10.36;90.21
84815;BME280;75050;53.190;5.562;2024-02-21T02:05:51;101990.78;;;10.37;90.24
84815;BME280;75050;53.190;5.562;2024-02-21T02:08:18;101981.41;;;10.33;90.22
84815;BME280;75050;53.190;5.562;2024-02-21T02:10:44;101987.25;;;10.38;90.45
84815;BME280;75050;53.190;5.562;2024-02-21T02:13:11;101976.09;;;10.34;90.22
84815;BME280;75050;53.190;5.562;2024-02-21T02:15:44;101977.75;;;10.37;90.11
84815;BME280;75050;53.190;5.562;2024-02-21T02:18:11;101973.44;;;10.36;90.28
84815;BME280;75050;53.190;5.562;2024-02-21T02:20:37;101964.13;;;10.31;90.04
84815;BME280;75050;53.190;5.562;2024-02-21T02:25:39;101966.00;;;10.27;89.74
84815;BME280;75050;53.190;5.562;2024-02-21T02:28:07;101975.22;;;10.35;90.17
84815;BME280;75050;53.190;5.562;2024-02-21T02:30:36;101967.41;;;10.35;90.17
84815;BME280;75050;53.190;5.562;2024-02-21T02:33:03;101970.00;;;10.35;90.28
84815;BME280;75050;53.190;5.562;2024-02-21T02:35:29;101971.78;;;10.35;90.05
84815;BME280;75050;53.190;5.562;2024-02-21T02:37:54;101962.50;;;10.28;90.05
84815;BME280;75050;53.190;5.562;2024-02-21T02:40:19;101954.56;;;10.31;90.23
84815;BME280;75050;53.190;5.562;2024-02-21T02:42:45;101961.47;;;10.32;90.36
84815;BME280;75050;53.190;5.562;2024-02-21T02:45:10;101958.75;;;10.35;90.29
84815;BME280;75050;53.190;5.562;2024-02-21T02:47:36;101964.84;;;10.34;90.62
84815;BME280;75050;53.190;5.562;2024-02-21T02:50:01;101961.47;;;10.32;90.09
84815;BME280;75050;53.190;5.562;2024-02-21T02:52:27;101954.44;;;10.34;90.22
84815;BME280;75050;53.190;5.562;2024-02-21T02:54:52;101937.34;;;10.27;90.17
84815;BME280;75050;53.190;5.562;2024-02-21T02:57:20;101937.13;;;10.33;90.03
84815;BME280;75050;53.190;5.562;2024-02-21T02:59:50;101929.38;;;10.32;90.24
84815;BME280;75050;53.190;5.562;2024-02-21T03:02:15;101937.13;;;10.33;89.91
84815;BME280;75050;53.190;5.562;2024-02-21T03:04:41;101942.34;;;10.33;90.15
84815;BME280;75050;53.190;5.562;2024-02-21T03:07:06;101937.97;;;10.33;90.20
84815;BME280;75050;53.190;5.562;2024-02-21T03:09:32;101926.81;;;10.30;90.01
84815;BME280;75050;53.190;5.562;2024-02-21T03:11:57;101936.34;;;10.31;90.06
84815;BME280;75050;53.190;5.562;2024-02-21T03:14:30;101936.38;;;10.30;90.16
84815;BME280;75050;53.190;5.562;2024-02-21T03:16:57;101944.06;;;10.32;90.08
84815;BME280;75050;53.190;5.562;2024-02-21T03:19:23;101932.75;;;10.33;90.09
84815;BME280;75050;53.190;5.562;2024-02-21T03:21:49;101934.50;;;10.33;90.26
84815;BME280;75050;53.190;5.562;2024-02-21T03:24:16;101928.56;;;10.30;90.16
84815;BME280;75050;53.190;5.562;2024-02-21T03:26:41;101916.50;;;10.27;90.07
84815;BME280;75050;53.190;5.562;2024-02-21T03:29:06;101918.25;;;10.27;90.14
84815;BME280;75050;53.190;5.562;2024-02-21T03:31:32;101916.28;;;10.33;90.03
84815;BME280;75050;53.190;5.562;2024-02-21T03:33:58;101917.13;;;10.33;90.13
84815;BME280;75050;53.190;5.562;2024-02-21T03:36:23;101911.06;;;10.33;90.15
84815;BME280;75050;53.190;5.562;2024-02-21T03:38:48;101911.19;;;10.30;90.01
84815;BME280;75050;53.190;5.562;2024-02-21T03:41:14;101900.66;;;10.33;90.25
84815;BME280;75050;53.190;5.562;2024-02-21T03:43:39;101886.97;;;10.28;90.17
84815;BME280;75050;53.190;5.562;2024-02-21T03:46:05;101885.88;;;10.33;90.17
84815;BME280;75050;53.190;5.562;2024-02-21T03:48:31;101883.31;;;10.32;90.36
84815;BME280;75050;53.190;5.562;2024-02-21T03:50:57;101885.03;;;10.33;90.33
84815;BME280;75050;53.190;5.562;2024-02-21T03:53:22;101887.63;;;10.33;90.12
84815;BME280;75050;53.190;5.562;2024-02-21T03:55:47;101896.34;;;10.32;90.15
84815;BME280;75050;53.190;5.562;2024-02-21T03:58:13;101894.56;;;10.32;90.00
84815;BME280;75050;53.190;5.562;2024-02-21T04:00:38;101893.72;;;10.32;90.31
84815;BME280;75050;53.190;5.562;2024-02-21T04:03:04;101893.72;;;10.32;90.20
84815;BME280;75050;53.190;5.562;2024-02-21T04:05:30;101873.50;;;10.17;90.33
84815;BME280;75050;53.190;5.562;2024-02-21T04:07:55;101904.16;;;10.32;90.27
84815;BME280;75050;53.190;5.562;2024-02-21T04:10:20;101896.34;;;10.32;90.31
84815;BME280;75050;53.190;5.562;2024-02-21T04:12:45;101885.91;;;10.32;90.10
84815;BME280;75050;53.190;5.562;2024-02-21T04:15:11;101867.94;;;10.26;90.12
84815;BME280;75050;53.190;5.562;2024-02-21T04:17:36;101875.50;;;10.32;90.13
84815;BME280;75050;53.190;5.562;2024-02-21T04:20:05;101860.91;;;10.28;90.31
84815;BME280;75050;53.190;5.562;2024-02-21T04:22:32;101866.00;;;10.31;90.15
84815;BME280;75050;53.190;5.562;2024-02-21T04:25:01;101876.44;;;10.31;90.23
84815;BME280;75050;53.190;5.562;2024-02-21T04:27:27;101869.63;;;10.27;90.39
84815;BME280;75050;53.190;5.562;2024-02-21T04:29:52;101888.47;;;10.33;90.28
84815;BME280;75050;53.190;5.562;2024-02-21T04:32:18;101873.00;;;10.29;90.07
84815;BME280;75050;53.190;5.562;2024-02-21T04:34:43;101877.28;;;10.32;90.01
84815;BME280;75050;53.190;5.562;2024-02-21T04:37:09;101884.16;;;10.32;90.05
84815;BME280;75050;53.190;5.562;2024-02-21T04:39:34;101882.47;;;10.32;90.11
84815;BME280;75050;53.190;5.562;2024-02-21T04:42:00;101872.94;;;10.31;90.16
84815;BME280;75050;53.190;5.562;2024-02-21T04:44:25;101876.44;;;10.31;90.08
84815;BME280;75050;53.190;5.562;2024-02-21T04:46:50;101872.91;;;10.32;90.29
84815;BME280;75050;53.190;5.562;2024-02-21T04:49:16;101872.06;;;10.32;90.29
84815;BME280;75050;53.190;5.562;2024-02-21T04:51:41;101870.50;;;10.28;90.24
84815;BME280;75050;53.190;5.562;2024-02-21T04:54:07;101870.50;;;10.28;90.19
84815;BME280;75050;53.190;5.562;2024-02-21T04:56:32;101866.00;;;10.31;90.15
84815;BME280;75050;53.190;5.562;2024-02-21T04:58:57;101866.00;;;10.31;90.19
84815;BME280;75050;53.190;5.562;2024-02-21T05:01:23;101868.63;;;10.31;89.89
84815;BME280;75050;53.190;5.562;2024-02-21T05:03:48;101862.69;;;10.28;90.02
84815;BME280;75050;53.190;5.562;2024-02-21T05:06:14;101868.63;;;10.31;90.13
84815;BME280;75050;53.190;5.562;2024-02-21T05:08:40;101869.50;;;10.30;90.31
84815;BME280;75050;53.190;5.562;2024-02-21T05:11:05;101871.28;;;10.30;90.36
84815;BME280;75050;53.190;5.562;2024-02-21T05:13:31;101875.56;;;10.31;90.24
84815;BME280;75050;53.190;5.562;2024-02-21T05:15:56;101866.91;;;10.30;89.98
84815;BME280;75050;53.190;5.562;2024-02-21T05:18:21;101866.00;;;10.31;90.35
84815;BME280;75050;53.190;5.562;2024-02-21T05:20:47;101859.09;;;10.30;90.15
84815;BME280;75050;53.190;5.562;2024-02-21T05:23:12;101854.78;;;10.29;90.19
84815;BME280;75050;53.190;5.562;2024-02-21T05:25:37;101846.19;;;10.27;89.90
84815;BME280;75050;53.190;5.562;2024-02-21T05:28:03;101841.75;;;10.29;90.00
84815;BME280;75050;53.190;5.562;2024-02-21T05:30:30;101846.19;;;10.27;90.27
84815;BME280;75050;53.190;5.562;2024-02-21T05:32:56;101838.38;;;10.27;90.12
84815;BME280;75050;53.190;5.562;2024-02-21T05:35:28;101814.41;;;10.19;90.13
84815;BME280;75050;53.190;5.562;2024-02-21T05:37:54;101827.84;;;10.30;90.08
84815;BME280;75050;53.190;5.562;2024-02-21T05:40:19;101827.00;;;10.30;90.22
84815;BME280;75050;53.190;5.562;2024-02-21T05:42:44;101805.50;;;10.25;90.00
84815;BME280;75050;53.190;5.562;2024-02-21T05:45:10;101812.31;;;10.27;90.18
84815;BME280;75050;53.190;5.562;2024-02-21T05:47:35;101807.00;;;10.30;90.24
84815;BME280;75050;53.190;5.562;2024-02-21T05:50:00;101806.16;;;10.30;90.23
84815;BME280;75050;53.190;5.562;2024-02-21T05:52:26;101798.34;;;10.30;89.95
84815;BME280;75050;53.190;5.562;2024-02-21T05:54:51;101788.75;;;10.30;90.22
84815;BME280;75050;53.190;5.562;2024-02-21T05:57:19;101786.22;;;10.29;90.18
84815;BME280;75050;53.190;5.562;2024-02-21T05:59:45;101781.00;;;10.29;90.01
84815;BME280;75050;53.190;5.562;2024-02-21T06:02:10;101787.94;;;10.30;90.19
84815;BME280;75050;53.190;5.562;2024-02-21T06:04:35;101785.38;;;10.28;90.17
84815;BME280;75050;53.190;5.562;2024-02-21T06:07:01;101774.19;;;10.26;90.16
84815;BME280;75050;53.190;5.562;2024-02-21T06:09:27;101756.34;;;10.17;90.17
84815;BME280;75050;53.190;5.562;2024-02-21T06:11:53;101767.16;;;10.28;89.87
84815;BME280;75050;53.190;5.562;2024-02-21T06:14:19;101766.22;;;10.29;90.16
84815;BME280;75050;53.190;5.562;2024-02-21T06:16:45;101774.97;;;10.28;90.14
84815;BME280;75050;53.190;5.562;2024-02-21T06:19:10;101770.59;;;10.29;90.08
84815;BME280;75050;53.190;5.562;2024-02-21T06:21:36;101772.38;;;10.28;90.09
84815;BME280;75050;53.190;5.562;2024-02-21T06:24:01;101776.72;;;10.28;90.02
84815;BME280;75050;53.190;5.562;2024-02-21T06:26:27;101771.53;;;10.28;89.94
84815;BME280;75050;53.190;5.562;2024-02-21T06:28:52;101783.63;;;10.29;90.15
84815;BME280;75050;53.190;5.562;2024-02-21T06:31:17;101780.19;;;10.28;90.14
84815;BME280;75050;53.190;5.562;2024-02-21T06:33:43;101780.19;;;10.28;90.05
84815;BME280;75050;53.190;5.562;2024-02-21T06:36:08;101777.69;;;10.25;89.84
84815;BME280;75050;53.190;5.562;2024-02-21T06:38:33;101776.63;;;10.29;90.15
84815;BME280;75050;53.190;5.562;2024-02-21T06:40:59;101780.19;;;10.28;90.22
84815;BME280;75050;53.190;5.562;2024-02-21T06:43:26;101782.78;;;10.28;90.32
84815;BME280;75050;53.190;5.562;2024-02-21T06:45:51;101783.63;;;10.29;90.10
84815;BME280;75050;53.190;5.562;2024-02-21T06:48:17;101780.28;;;10.25;90.11
84815;BME280;75050;53.190;5.562;2024-02-21T06:50:43;101770.66;;;10.27;90.14
84815;BME280;75050;53.190;5.562;2024-02-21T06:53:09;101777.56;;;10.28;89.95
84815;BME280;75050;53.190;5.562;2024-02-21T06:55:35;101759.50;;;10.24;90.06
84815;BME280;75050;53.190;5.562;2024-02-21T06:58:00;101758.50;;;10.28;90.00
84815;BME280;75050;53.190;5.562;2024-02-21T07:00:28;101754.41;;;10.22;89.91
84815;BME280;75050;53.190;5.562;2024-02-21T07:02:53;101755.03;;;10.27;90.06
84815;BME280;75050;53.190;5.562;2024-02-21T07:05:19;101740.50;;;10.22;90.15
84815;BME280;75050;53.190;5.562;2024-02-21T07:07:44;101746.31;;;10.28;90.13
84815;BME280;75050;53.190;5.562;2024-02-21T07:10:10;101738.63;;;10.25;90.18
84815;BME280;75050;53.190;5.562;2024-02-21T07:12:36;101733.28;;;10.28;90.14
84815;BME280;75050;53.190;5.562;2024-02-21T07:15:04;101736.78;;;10.27;90.10
84815;BME280;75050;53.190;5.562;2024-02-21T07:17:29;101723.78;;;10.27;89.92
84815;BME280;75050;53.190;5.562;2024-02-21T07:19:55;101726.38;;;10.27;90.00
84815;BME280;75050;53.190;5.562;2024-02-21T07:22:22;101729.84;;;10.28;90.01
84815;BME280;75050;53.190;5.562;2024-02-21T07:24:47;101724.66;;;10.28;90.08
84815;BME280;75050;53.190;5.562;2024-02-21T07:27:15;101701.53;;;10.20;90.09
84815;BME280;75050;53.190;5.562;2024-02-21T07:29:40;101720.28;;;10.28;90.07
84815;BME280;75050;53.190;5.562;2024-02-21T07:32:05;101708.16;;;10.27;90.00
84815;BME280;75050;53.190;5.562;2024-02-21T07:34:31;101715.06;;;10.28;90.00
84815;BME280;75050;53.190;5.562;2024-02-21T07:36:57;101710.75;;;10.27;89.91
84815;BME280;75050;53.190;5.562;2024-02-21T07:39:22;101704.66;;;10.28;90.10
84815;BME280;75050;53.190;5.562;2024-02-21T07:41:48;101703.97;;;10.23;90.06
84815;BME280;75050;53.190;5.562;2024-02-21T07:44:14;101703.94;;;10.25;90.01
84815;BME280;75050;53.190;5.562;2024-02-21T07:46:40;101705.47;;;10.29;90.02
84815;BME280;75050;53.190;5.562;2024-02-21T07:49:05;101686.69;;;10.22;90.12
84815;BME280;75050;53.190;5.562;2024-02-21T07:51:31;101701.09;;;10.29;90.10
84815;BME280;75050;53.190;5.562;2024-02-21T07:53:56;101702.88;;;10.29;90.05
84815;BME280;75050;53.190;5.562;2024-02-21T07:56:21;101696.84;;;10.28;89.97
84815;BME280;75050;53.190;5.562;2024-02-21T07:58:47;101699.44;;;10.28;89.98
84815;BME280;75050;53.190;5.562;2024-02-21T08:01:21;101690.06;;;10.24;90.18
84815;BME280;75050;53.190;5.562;2024-02-21T08:03:46;101700.28;;;10.29;90.10
84815;BME280;75050;53.190;5.562;2024-02-21T08:06:13;101677.09;;;10.23;89.85
84815;BME280;75050;53.190;5.562;2024-02-21T08:08:42;101686.34;;;10.30;89.95
84815;BME280;75050;53.190;5.562;2024-02-21T08:11:07;101689.78;;;10.30;89.92
84815;BME280;75050;53.190;5.562;2024-02-21T08:13:32;101686.34;;;10.30;90.11
84815;BME280;75050;53.190;5.562;2024-02-21T08:15:58;101680.28;;;10.29;90.08
84815;BME280;75050;53.190;5.562;2024-02-21T08:18:23;101667.41;;;10.26;90.10
84815;BME280;75050;53.190;5.562;2024-02-21T08:20:48;101663.75;;;10.30;90.02
84815;BME280;75050;53.190;5.562;2024-02-21T08:23:18;101650.34;;;10.19;90.17
84815;BME280;75050;53.190;5.562;2024-02-21T08:25:44;101660.31;;;10.30;90.05
84815;BME280;75050;53.190;5.562;2024-02-21T08:28:09;101640.44;;;10.27;90.10
84815;BME280;75050;53.190;5.562;2024-02-21T08:30:34;101650.72;;;10.30;90.29
84815;BME280;75050;53.190;5.562;2024-02-21T08:33:00;101648.13;;;10.30;90.18
84815;BME280;75050;53.190;5.562;2024-02-21T08:35:25;101639.47;;;10.30;90.12
84815;BME280;75050;53.190;5.562;2024-02-21T08:37:51;101636.88;;;10.30;90.01
84815;BME280;75050;53.190;5.562;2024-02-21T08:40:16;101636.88;;;10.30;90.13
84815;BME280;75050;53.190;5.562;2024-02-21T08:42:47;101620.38;;;10.29;90.31
84815;BME280;75050;53.190;5.562;2024-02-21T08:45:12;101616.03;;;10.30;89.87
84815;BME280;75050;53.190;5.562;2024-02-21T08:47:41;101612.56;;;10.29;90.26
84815;BME280;75050;53.190;5.562;2024-02-21T08:50:07;101614.25;;;10.30;90.22
84815;BME280;75050;53.190;5.562;2024-02-21T08:52:34;101615.09;;;10.31;90.09
84815;BME280;75050;53.190;5.562;2024-02-21T08:55:00;101607.44;;;10.28;90.20
84815;BME280;75050;53.190;5.562;2024-02-21T08:57:25;101610.75;;;10.31;90.11
84815;BME280;75050;53.190;5.562;2024-02-21T08:59:51;101607.28;;;10.31;90.20
84815;BME280;75050;53.190;5.562;2024-02-21T09:02:16;101613.38;;;10.31;89.99
84815;BME280;75050;53.190;5.562;2024-02-21T09:04:42;101608.16;;;10.31;90.00
84815;BME280;75050;53.190;5.562;2024-02-21T09:07:07;101599.75;;;10.25;90.09
84815;BME280;75050;53.190;5.562;2024-02-21T09:09:32;101582.78;;;10.16;89.84
84815;BME280;75050;53.190;5.562;2024-02-21T09:11:58;101610.75;;;10.31;89.85
84815;BME280;75050;53.190;5.562;2024-02-21T09:14:31;101598.56;;;10.32;90.03
84815;BME280;75050;53.190;5.562;2024-02-21T09:16:56;101594.25;;;10.31;89.99
84815;BME280;75050;53.190;5.562;2024-02-21T09:19:21;101595.03;;;10.32;90.47
84815;BME280;75050;53.190;5.562;2024-02-21T09:21:47;101591.59;;;10.32;90.20
84815;BME280;75050;53.190;5.562;2024-02-21T09:24:12;101576.09;;;10.29;90.15
84815;BME280;75050;53.190;5.562;2024-02-21T09:26:37;101575.13;;;10.32;89.96
84815;BME280;75050;53.190;5.562;2024-02-21T09:29:03;101575.97;;;10.32;90.12
84815;BME280;75050;53.190;5.562;2024-02-21T09:31:29;101565.56;;;10.32;90.03
84815;BME280;75050;53.190;5.562;2024-02-21T09:33:54;101568.16;;;10.32;90.04
84815;BME280;75050;53.190;5.562;2024-02-21T09:36:19;101552.66;;;10.29;90.24
84815;BME280;75050;53.190;5.562;2024-02-21T09:38:46;101559.44;;;10.33;90.39
84815;BME280;75050;53.190;5.562;2024-02-21T09:41:16;101548.16;;;10.32;90.28
84815;BME280;75050;53.190;5.562;2024-02-21T09:43:44;101546.44;;;10.33;90.05
84815;BME280;75050;53.190;5.562;2024-02-21T09:46:18;101531.06;;;10.27;90.03
84815;BME280;75050;53.190;5.562;2024-02-21T09:49:13;101535.91;;;10.34;90.13
84815;BME280;75050;53.190;5.562;2024-02-21T09:51:49;101500.66;;;10.28;90.10
84815;BME280;75050;53.190;5.562;2024-02-21T09:54:16;101516.00;;;10.33;89.95
84815;BME280;75050;53.190;5.562;2024-02-21T09:56:45;101521.28;;;10.32;89.95
84815;BME280;75050;53.190;5.562;2024-02-21T09:59:11;101517.69;;;10.34;90.08
84815;BME280;75050;53.190;5.562;2024-02-21T10:01:37;101510.78;;;10.33;90.13
84815;BME280;75050;53.190;5.562;2024-02-21T10:04:03;101508.97;;;10.35;90.07
84815;BME280;75050;53.190;5.562;2024-02-21T10:06:29;101509.81;;;10.36;90.02
84815;BME280;75050;53.190;5.562;2024-02-21T10:08:55;101494.47;;;10.30;90.02
84815;BME280;75050;53.190;5.562;2024-02-21T10:11:24;101493.28;;;10.37;89.77
84815;BME280;75050;53.190;5.562;2024-02-21T10:13:50;101485.47;;;10.37;90.02
84815;BME280;75050;53.190;5.562;2024-02-21T10:16:16;101486.28;;;10.37;90.12
84815;BME280;75050;53.190;5.562;2024-02-21T10:18:41;101482.78;;;10.38;89.90
84815;BME280;75050;53.190;5.562;2024-02-21T10:21:07;101477.56;;;10.38;90.12
84815;BME280;75050;53.190;5.562;2024-02-21T10:23:47;101478.41;;;10.39;89.84
84815;BME280;75050;53.190;5.562;2024-02-21T10:26:14;101463.63;;;10.39;89.70
84815;BME280;75050;53.190;5.562;2024-02-21T10:28:40;101463.63;;;10.39;89.84
84815;BME280;75050;53.190;5.562;2024-02-21T10:31:08;101463.63;;;10.39;89.85
84815;BME280;75050;53.190;5.562;2024-02-21T10:33:34;101457.72;;;10.36;89.99
84815;BME280;75050;53.190;5.562;2024-02-21T10:36:09;101457.41;;;10.42;89.94
84815;BME280;75050;53.190;5.562;2024-02-21T10:38:36;101463.50;;;10.42;90.01
84815;BME280;75050;53.190;5.562;2024-02-21T10:41:03;101454.81;;;10.42;89.86
84815;BME280;75050;53.190;5.562;2024-02-21T10:43:33;101423.09;;;10.34;89.75
84815;BME280;75050;53.190;5.562;2024-02-21T10:46:04;101442.72;;;10.41;89.84
84815;BME280;75050;53.190;5.562;2024-02-21T10:48:41;101436.75;;;10.39;89.97
84815;BME280;75050;53.190;5.562;2024-02-21T10:51:18;101433.91;;;10.43;89.84
84815;BME280;75050;53.190;5.562;2024-02-21T10:56:35;101415.66;;;10.43;89.76
84815;BME280;75050;53.190;5.562;2024-02-21T10:59:07;101412.22;;;10.43;89.92
84815;BME280;75050;53.190;5.562;2024-02-21T11:01:33;101399.34;;;10.40;89.72
84815;BME280;75050;53.190;5.562;2024-02-21T11:04:05;101401.75;;;10.44;89.79
84815;BME280;75050;53.190;5.562;2024-02-21T11:06:32;101398.44;;;10.41;89.86
84815;BME280;75050;53.190;5.562;2024-02-21T11:09:06;101387.84;;;10.44;89.84
84815;BME280;75050;53.190;5.562;2024-02-21T11:11:39;101383.44;;;10.46;90.06
84815;BME280;75050;53.190;5.562;2024-02-21T11:14:18;101379.19;;;10.43;89.68
84815;BME280;75050;53.190;5.562;2024-02-21T11:16:44;101381.66;;;10.46;89.91
84815;BME280;75050;53.190;5.562;2024-02-21T11:19:19;101377.34;;;10.45;89.81
84815;BME280;75050;53.190;5.562;2024-02-21T11:21:45;101372.09;;;10.47;89.82
84815;BME280;75050;53.190;5.562;2024-02-21T11:24:10;101360.19;;;10.41;89.92
84815;BME280;75050;53.190;5.562;2024-02-21T11:26:40;101367.72;;;10.47;89.82
84815;BME280;75050;53.190;5.562;2024-02-21T11:29:07;101365.09;;;10.47;89.74
84815;BME280;75050;53.190;5.562;2024-02-21T11:31:44;101359.19;;;10.44;89.84
84815;BME280;75050;53.190;5.562;2024-02-21T11:34:12;101342.59;;;10.46;89.75
84815;BME280;75050;53.190;5.562;2024-02-21T11:36:50;101324.56;;;10.42;89.58
84815;BME280;75050;53.190;5.562;2024-02-21T11:39:24;101314.16;;;10.42;89.65
84815;BME280;75050;53.190;5.562;2024-02-21T11:44:29;101308.81;;;10.45;89.74
84815;BME280;75050;53.190;5.562;2024-02-21T11:46:55;101300.84;;;10.48;89.76
84815;BME280;75050;53.190;5.562;2024-02-21T11:49:20;101281.22;;;10.41;89.69
84815;BME280;75050;53.190;5.562;2024-02-21T11:51:46;101274.69;;;10.49;89.69
84815;BME280;75050;53.190;5.562;2024-02-21T11:54:12;101266.03;;;10.49;89.86
84815;BME280;75050;53.190;5.562;2024-02-21T11:56:41;101249.50;;;10.50;89.85
84815;BME280;75050;53.190;5.562;2024-02-21T11:59:06;101255.53;;;10.50;89.71
84815;BME280;75050;53.190;5.562;2024-02-21T12:01:32;101247.13;;;10.45;89.45
84815;BME280;75050;53.190;5.562;2024-02-21T12:03:57;101248.56;;;10.51;89.67
84815;BME280;75050;53.190;5.562;2024-02-21T12:06:23;101233.50;;;10.40;89.79
84815;BME280;75050;53.190;5.562;2024-02-21T12:08:48;101246.13;;;10.48;89.46
84815;BME280;75050;53.190;5.562;2024-02-21T12:11:21;101252.81;;;10.53;89.74
84815;BME280;75050;53.190;5.562;2024-02-21T12:13:47;101254.47;;;10.54;89.72
84815;BME280;75050;53.190;5.562;2024-02-21T12:16:23;101246.91;;;10.50;89.80
84815;BME280;75050;53.190;5.562;2024-02-21T12:18:48;101248.44;;;10.54;89.69
84815;BME280;75050;53.190;5.562;2024-02-21T12:21:15;101236.63;;;10.47;89.38
84815;BME280;75050;53.190;5.562;2024-02-21T12:23:41;101237.25;;;10.52;89.77
84815;BME280;75050;53.190;5.562;2024-02-21T12:26:06;101209.50;;;10.51;89.83
84815;BME280;75050;53.190;5.562;2024-02-21T12:28:33;101204.22;;;10.52;89.83
84815;BME280;75050;53.190;5.562;2024-02-21T12:30:58;101199.00;;;10.52;89.44
84815;BME280;75050;53.190;5.562;2024-02-21T12:33:24;101199.94;;;10.51;89.82
84815;BME280;75050;53.190;5.562;2024-02-21T12:35:49;101181.69;;;10.51;89.79
84815;BME280;75050;53.190;5.562;2024-02-21T12:38:15;101172.13;;;10.52;89.60
84815;BME280;75050;53.190;5.562;2024-02-21T12:40:40;101151.59;;;10.46;89.74
84815;BME280;75050;53.190;5.562;2024-02-21T12:43:05;101129.59;;;10.51;89.79
84815;BME280;75050;53.190;5.562;2024-02-21T12:45:31;101128.66;;;10.52;89.70
84815;BME280;75050;53.190;5.562;2024-02-21T12:47:56;101112.13;;;10.53;89.63
84815;BME280;75050;53.190;5.562;2024-02-21T12:50:21;101097.31;;;10.54;89.71
84815;BME280;75050;53.190;5.562;2024-02-21T12:52:48;101087.91;;;10.51;89.54
84815;BME280;75050;53.190;5.562;2024-02-21T12:55:14;101073.28;;;10.49;89.51